Time;durP1;ratioP1;P1;durP2;ratioP2;P2;SDS_P1;SDS_P2;PMS_P1;PMS_P2;Temp;Humidity;BMP_temperature;BMP_pressure;BME280_temperature;BME280_humidity;BME280_pressure;Samples;Min_cycle;Max_cycle;Signal;HPM_P1;HPM_P2
2021/01/13 00:01:51;;;;;;;5.83;4.40;;;;;;;-0.26;85.24;99066.50;2142935;81;21099;-71
2021/01/13 00:04:53;;;;;;;7.85;3.90;;;;;;;-0.25;85.12;99069.00;2144119;81;21120;-71
2021/01/13 00:07:54;;;;;;;5.30;3.45;;;;;;;-0.26;85.07;99059.98;2138384;81;21116;-71
2021/01/13 00:10:56;;;;;;;7.70;4.22;;;;;;;-0.25;84.99;99066.88;2142369;81;21512;-71
2021/01/13 00:13:57;;;;;;;6.42;3.72;;;;;;;-0.25;84.97;99059.05;2138221;81;21196;-72
2021/01/13 00:16:59;;;;;;;5.70;3.12;;;;;;;-0.25;84.99;99057.27;2134812;81;21117;-71
2021/01/13 00:20:00;;;;;;;5.47;3.40;;;;;;;-0.25;84.99;99060.35;2138730;81;21156;-74
2021/01/13 00:23:02;;;;;;;6.80;3.65;;;;;;;-0.28;85.03;99054.91;2133348;81;21207;-71
2021/01/13 00:26:03;;;;;;;6.25;3.65;;;;;;;-0.32;85.15;99065.70;2140942;81;21120;-71
2021/01/13 00:29:04;;;;;;;7.17;4.00;;;;;;;-0.36;85.28;99056.48;2137424;81;21179;-72
2021/01/13 00:32:06;;;;;;;12.00;5.10;;;;;;;-0.40;85.58;99062.39;2141089;81;21069;-73
2021/01/13 00:35:08;;;;;;;8.18;4.80;;;;;;;-0.43;85.60;99063.13;2137531;81;21175;-71
2021/01/13 00:38:11;;;;;;;10.82;5.50;;;;;;;-0.48;85.65;99061.72;2137786;81;21139;-72
2021/01/13 00:41:13;;;;;;;9.30;4.65;;;;;;;-0.48;85.88;99055.66;2136798;81;21092;-71
2021/01/13 00:44:15;;;;;;;10.98;4.97;;;;;;;-0.49;85.94;99062.66;2141918;81;21100;-71
2021/01/13 00:47:16;;;;;;;10.23;5.72;;;;;;;-0.46;86.09;99057.19;2138321;81;21151;-75
2021/01/13 00:50:17;;;;;;;10.80;6.03;;;;;;;-0.46;86.04;99055.89;2143453;81;21587;-72
2021/01/13 00:53:22;;;;;;;12.20;5.55;;;;;;;-0.48;86.13;99051.30;2137714;81;21287;-72
2021/01/13 00:56:23;;;;;;;10.30;5.42;;;;;;;-0.49;86.10;99060.05;2136243;81;21117;-72
2021/01/13 00:59:25;;;;;;;8.85;4.17;;;;;;;-0.48;86.14;99067.38;2138081;81;21214;-71
2021/01/13 01:02:26;;;;;;;8.95;4.37;;;;;;;-0.44;86.24;99065.39;2140751;81;21147;-71
2021/01/13 01:05:27;;;;;;;6.97;4.53;;;;;;;-0.44;86.30;99077.11;2138326;81;21064;-71
2021/01/13 01:08:29;;;;;;;7.53;4.05;;;;;;;-0.43;86.40;99067.03;2150092;80;21135;-71
2021/01/13 01:11:35;;;;;;;5.15;4.10;;;;;;;-0.42;86.36;99081.25;2160795;80;21174;-71
2021/01/13 01:14:36;;;;;;;8.13;4.90;;;;;;;-0.41;86.64;99080.77;2163213;80;21137;-71
2021/01/13 01:17:38;;;;;;;7.12;4.08;;;;;;;-0.39;86.46;99077.58;2156230;80;21532;-71
2021/01/13 01:20:39;;;;;;;7.35;4.60;;;;;;;-0.40;86.71;99090.23;2164275;80;21107;-74
2021/01/13 01:23:40;;;;;;;9.93;4.47;;;;;;;-0.38;86.55;99088.34;2131903;80;21109;-72
2021/01/13 01:26:46;;;;;;;9.83;4.55;;;;;;;-0.37;86.64;99099.11;2158765;80;21515;-72
2021/01/13 01:29:47;;;;;;;5.55;3.52;;;;;;;-0.37;86.75;99103.02;2162982;80;21537;-71
2021/01/13 01:32:49;;;;;;;8.50;3.80;;;;;;;-0.38;86.84;99105.29;2158985;80;21154;-72
2021/01/13 01:35:52;;;;;;;3.75;3.20;;;;;;;-0.40;87.11;99094.97;2159141;80;21164;-73
2021/01/13 01:38:53;;;;;;;5.12;3.20;;;;;;;-0.41;87.05;99109.45;2164160;80;21616;-74
2021/01/13 01:41:55;;;;;;;6.17;3.58;;;;;;;-0.42;87.15;99112.53;2156626;80;21108;-72
2021/01/13 01:44:56;;;;;;;4.55;3.60;;;;;;;-0.44;87.05;99115.73;2162996;80;21101;-75
2021/01/13 01:48:25;;;;;;;8.20;4.53;;;;;;;-0.44;87.24;99116.20;2160406;80;21149;-72
2021/01/13 01:51:41;;;;;;;5.25;3.80;;;;;;;-0.43;87.21;99125.67;2160440;80;21065;-72
2021/01/13 01:54:50;;;;;;;4.53;3.70;;;;;;;-0.42;87.13;99129.47;2149506;80;21141;-73
2021/01/13 01:57:56;;;;;;;4.62;3.67;;;;;;;-0.42;87.06;99137.73;2153057;80;21590;-71
2021/01/13 02:01:04;;;;;;;6.20;3.90;;;;;;;-0.43;87.18;99143.92;2160650;80;21496;-73
2021/01/13 02:04:31;;;;;;;4.50;3.55;;;;;;;-0.43;87.10;99146.04;2165106;80;21141;-71
2021/01/13 02:07:33;;;;;;;4.85;3.33;;;;;;;-0.42;87.07;99145.56;2157885;80;21611;-71
2021/01/13 02:10:35;;;;;;;6.00;3.10;;;;;;;-0.42;87.08;99159.45;2153008;81;21966;-71
2021/01/13 02:13:37;;;;;;;4.42;3.10;;;;;;;-0.42;86.97;99154.69;2152920;81;21641;-71
2021/01/13 02:16:40;;;;;;;6.03;3.08;;;;;;;-0.42;86.93;99154.69;2153054;81;21505;-72
2021/01/13 02:19:53;;;;;;;5.30;3.02;;;;;;;-0.45;86.88;99159.69;2149822;81;21563;-71
2021/01/13 02:23:02;;;;;;;3.47;2.87;;;;;;;-0.48;86.87;99165.97;2147637;81;21148;-71
2021/01/13 02:26:26;;;;;;;4.20;2.62;;;;;;;-0.50;86.84;99170.46;2148269;81;21228;-71
2021/01/13 02:29:37;;;;;;;4.50;2.45;;;;;;;-0.52;86.67;99178.87;2124128;82;21609;-74
2021/01/13 02:32:45;;;;;;;;;;;;;;;-0.54;86.46;99184.66;2127076;81;21143;-74
2021/01/13 02:36:20;;;;;;;3.85;2.30;;;;;;;-0.54;86.35;99184.66;2147648;81;20137;-71
2021/01/13 02:39:22;;;;;;;1.90;1.65;;;;;;;-0.55;85.97;99181.71;2151028;81;21095;-71
2021/01/13 02:42:28;;;;;;;3.85;1.70;;;;;;;-0.56;85.58;99198.30;2146015;81;21176;-71
2021/01/13 02:45:39;;;;;;;1.90;1.50;;;;;;;-0.57;85.02;99201.84;2149087;81;21111;-73
2021/01/13 02:48:41;;;;;;;2.08;1.72;;;;;;;-0.58;84.82;99201.50;2155581;81;21584;-71
2021/01/13 02:51:48;;;;;;;2.85;1.80;;;;;;;-0.60;84.73;99208.59;2151679;81;21135;-71
2021/01/13 02:54:56;;;;;;;4.58;2.02;;;;;;;-0.61;84.48;99218.67;2122477;82;21182;-71
2021/01/13 02:57:57;;;;;;;2.95;1.77;;;;;;;-0.63;84.30;99222.34;2153443;81;21106;-71
2021/01/13 03:01:02;;;;;;;3.67;1.60;;;;;;;-0.65;83.98;99226.35;2149508;81;21185;-71
2021/01/13 03:04:05;;;;;;;3.83;1.98;;;;;;;-0.66;83.88;99229.09;2156194;81;21573;-72
2021/01/13 03:07:14;;;;;;;2.30;1.45;;;;;;;-0.67;83.78;99243.08;2150907;81;21161;-72
2021/01/13 03:10:19;;;;;;;1.92;1.60;;;;;;;-0.69;83.61;99240.09;2153213;80;21541;-72
2021/01/13 03:13:24;;;;;;;4.37;1.70;;;;;;;-0.73;83.70;99250.41;2150769;80;21135;-71
2021/01/13 03:16:27;;;;;;;3.65;1.67;;;;;;;-0.73;83.73;99254.79;2146615;80;21148;-73
2021/01/13 03:19:43;;;;;;;2.02;1.57;;;;;;;-0.73;83.39;99254.31;2153581;80;21158;-75
2021/01/13 03:23:07;;;;;;;3.45;1.92;;;;;;;-0.74;83.53;99245.30;2121212;80;21109;-71
2021/01/13 03:26:09;;;;;;;4.22;1.60;;;;;;;-0.73;83.39;99248.28;2148864;80;21089;-71
2021/01/13 03:29:20;;;;;;;3.33;1.72;;;;;;;-0.77;83.32;99252.05;2152443;80;21113;-72
2021/01/13 03:32:32;;;;;;;2.10;1.27;;;;;;;-0.81;83.27;99242.81;2151361;80;21262;-71
2021/01/13 03:35:46;;;;;;;4.08;1.42;;;;;;;-0.84;83.45;99244.34;2150288;80;21145;-71
2021/01/13 03:39:06;;;;;;;4.28;2.08;;;;;;;-0.84;83.50;99246.48;2156572;80;21083;-71
2021/01/13 03:42:12;;;;;;;4.20;2.00;;;;;;;-0.85;83.58;99253.09;2147585;80;21105;-71
2021/01/13 03:45:19;;;;;;;3.22;1.90;;;;;;;-0.86;83.69;99253.56;2156719;80;21226;-73
2021/01/13 03:48:50;;;;;;;4.42;1.65;;;;;;;-0.84;83.77;99257.38;2153032;80;21493;-74
2021/01/13 03:51:58;;;;;;;;;;;;;;;-0.84;83.89;99265.19;2154319;80;21131;-72
2021/01/13 03:55:03;;;;;;;3.62;2.15;;;;;;;-0.85;83.96;99264.81;2151276;81;20524;-71
2021/01/13 03:58:28;;;;;;;3.45;2.10;;;;;;;-0.87;83.98;99267.55;2153394;80;21114;-72
2021/01/13 04:01:44;;;;;;;4.87;2.47;;;;;;;-0.89;84.08;99267.30;2124272;80;21095;-72
2021/01/13 04:05:26;;;;;;;5.25;1.77;;;;;;;-0.92;83.99;99281.38;2153478;80;21192;-71
2021/01/13 04:08:48;;;;;;;7.28;2.15;;;;;;;-0.93;84.17;99285.77;2151330;80;21138;-72
2021/01/13 04:11:56;;;;;;;4.80;2.30;;;;;;;-0.93;84.20;99296.62;2124776;81;21204;-70
2021/01/13 04:14:58;;;;;;;3.58;2.40;;;;;;;-0.95;84.25;99307.66;2145410;82;21174;-70
2021/01/13 04:18:04;;;;;;;4.22;2.33;;;;;;;-0.93;84.36;99305.73;2140566;81;21162;-71
2021/01/13 04:21:07;;;;;;;4.33;2.10;;;;;;;-0.91;84.33;99304.69;2144012;81;21119;-70
2021/01/13 04:24:10;;;;;;;6.78;2.30;;;;;;;-0.88;84.36;99308.84;2146849;81;21127;-70
2021/01/13 04:27:15;;;;;;;6.75;2.70;;;;;;;-0.86;84.36;99315.25;2141333;81;21109;-74
2021/01/13 04:30:18;;;;;;;5.80;2.47;;;;;;;-0.85;84.37;99313.82;2138349;81;21248;-70
2021/01/13 04:33:19;;;;;;;7.00;3.02;;;;;;;-0.83;84.36;99309.34;2141669;81;21079;-71
2021/01/13 04:36:21;;;;;;;5.83;2.70;;;;;;;-0.80;84.35;99306.98;2146523;81;21543;-71
2021/01/13 04:39:25;;;;;;;4.60;2.58;;;;;;;-0.77;84.30;99301.53;2143560;81;21154;-70
2021/01/13 04:42:30;;;;;;;5.55;2.42;;;;;;;-0.77;84.25;99302.84;2147430;81;21129;-71
2021/01/13 04:45:44;;;;;;;3.45;2.12;;;;;;;-0.75;84.29;99308.77;2142164;81;21142;-70
2021/01/13 04:48:47;;;;;;;6.35;2.35;;;;;;;-0.73;84.30;99306.89;2140399;81;21186;-70
2021/01/13 04:51:51;;;;;;;2.95;2.00;;;;;;;-0.72;84.27;99309.84;2123684;81;21168;-72
2021/01/13 04:54:53;;;;;;;3.75;2.20;;;;;;;-0.76;84.19;99305.80;2138363;81;21117;-71
2021/01/13 04:58:21;;;;;;;5.65;2.25;;;;;;;-0.79;84.17;99303.42;2141650;81;21546;-71
2021/01/13 05:01:48;;;;;;;7.05;3.00;;;;;;;-0.77;84.22;99299.76;2136402;81;21116;-71
2021/01/13 05:05:00;;;;;;;7.47;3.35;;;;;;;-0.75;84.20;99307.47;2138327;81;21170;-71
2021/01/13 05:08:16;;;;;;;8.13;3.02;;;;;;;-0.76;84.07;99299.28;2139100;81;21174;-69
2021/01/13 05:11:21;;;;;;;8.80;2.55;;;;;;;-0.80;83.95;99308.28;2141458;81;21122;-73
2021/01/13 05:14:26;;;;;;;7.08;2.75;;;;;;;-0.84;83.98;99305.08;2139960;81;21474;-70
2021/01/13 05:17:35;;;;;;;6.60;2.40;;;;;;;-0.85;83.93;99307.79;2120103;81;21117;-70
2021/01/13 05:20:43;;;;;;;8.50;2.47;;;;;;;-0.89;84.05;99308.97;2135372;81;21207;-70
2021/01/13 05:23:51;;;;;;;6.80;2.30;;;;;;;-0.93;84.02;99309.64;2139712;81;21145;-70
2021/01/13 05:27:02;;;;;;;7.47;2.33;;;;;;;-0.98;84.11;99299.59;2141647;81;21674;-69
2021/01/13 05:30:09;;;;;;;5.92;2.70;;;;;;;-1.01;84.25;99292.01;2137597;81;21176;-70
2021/01/13 05:33:13;;;;;;;5.80;1.98;;;;;;;-1.05;84.34;99302.27;2141769;81;21114;-72
2021/01/13 05:36:18;;;;;;;5.87;1.90;;;;;;;-1.09;84.46;99298.25;2139253;81;21067;-79
2021/01/13 05:39:25;;;;;;;5.78;2.50;;;;;;;-1.14;84.61;99303.78;2145999;81;21146;-67
2021/01/13 05:42:26;;;;;;;6.53;2.27;;;;;;;-1.15;84.80;99307.81;2140348;81;21360;-71
2021/01/13 05:45:30;;;;;;;8.88;3.50;;;;;;;-1.17;84.98;99314.90;2138295;81;21602;-70
2021/01/13 05:48:36;;;;;;;9.68;2.27;;;;;;;-1.16;85.09;99312.16;2143443;81;21196;-69
2021/01/13 05:51:39;;;;;;;9.43;2.55;;;;;;;-1.16;85.12;99308.26;2143923;81;21232;-68
2021/01/13 05:54:41;;;;;;;5.95;2.40;;;;;;;-1.15;85.32;99316.92;2128629;81;21204;-73
2021/01/13 05:57:58;;;;;;;6.37;2.47;;;;;;;-1.12;85.29;99323.20;2140320;81;21223;-71
2021/01/13 06:01:00;;;;;;;12.23;3.20;;;;;;;-1.12;85.14;99319.30;2142578;81;21165;-71
2021/01/13 06:04:04;;;;;;;6.83;2.45;;;;;;;-1.06;85.14;99330.56;2145369;81;21157;-71
2021/01/13 06:07:22;;;;;;;10.23;3.30;;;;;;;-1.02;85.15;99325.95;2145219;81;21154;-70
2021/01/13 06:10:29;;;;;;;6.28;2.52;;;;;;;-0.95;85.34;99327.19;2149133;80;21517;-70
2021/01/13 06:13:34;;;;;;;11.18;2.67;;;;;;;-0.89;85.41;99325.42;2150155;80;21165;-70
2021/01/13 06:16:36;;;;;;;9.10;2.62;;;;;;;-0.86;85.52;99329.10;2150818;80;21146;-71
2021/01/13 06:19:38;;;;;;;6.25;2.50;;;;;;;-0.82;85.54;99329.22;2149270;81;22378;-71
2021/01/13 06:22:42;;;;;;;6.05;2.47;;;;;;;-0.82;85.75;99329.70;2127878;82;21169;-71
2021/01/13 06:25:45;;;;;;;10.15;2.72;;;;;;;-0.81;85.76;99327.47;2150524;80;21168;-70
2021/01/13 06:29:25;;;;;;;11.83;2.83;;;;;;;-0.80;85.89;99325.21;2151000;80;21573;-70
2021/01/13 06:32:34;;;;;;;7.30;2.60;;;;;;;-0.78;85.77;99328.55;2154516;80;21509;-70
2021/01/13 06:35:47;;;;;;;6.78;3.05;;;;;;;-0.76;85.82;99323.58;2126835;80;21158;-70
2021/01/13 06:39:01;;;;;;;8.78;3.60;;;;;;;-0.74;85.69;99326.05;2148435;80;21090;-71
2021/01/13 06:42:03;;;;;;;10.13;3.08;;;;;;;-0.73;85.77;99331.64;2155268;80;21205;-70
2021/01/13 06:45:09;;;;;;;10.60;3.12;;;;;;;-0.71;85.74;99333.64;2145080;80;21183;-70
2021/01/13 06:48:10;;;;;;;8.08;3.50;;;;;;;-0.69;85.86;99330.45;2153750;80;21174;-70
2021/01/13 06:51:19;;;;;;;8.33;3.37;;;;;;;-0.66;85.96;99338.52;2148860;80;21151;-70
2021/01/13 06:54:21;;;;;;;8.18;4.30;;;;;;;-0.64;86.12;99333.55;2150833;80;21169;-71
2021/01/13 06:57:31;;;;;;;12.23;4.42;;;;;;;-0.61;85.99;99346.35;2119476;82;21771;-71
2021/01/13 07:00:33;;;;;;;9.48;4.25;;;;;;;-0.59;86.01;99347.08;2146420;80;21182;-70
2021/01/13 07:03:34;;;;;;;11.60;4.67;;;;;;;-0.59;85.96;99341.01;2148141;80;21216;-69
2021/01/13 07:06:35;;;;;;;11.50;4.25;;;;;;;-0.63;86.14;99344.80;2150752;81;21172;-69
2021/01/13 07:09:40;;;;;;;9.60;4.60;;;;;;;-0.64;85.97;99350.97;2148150;80;21224;-73
2021/01/13 07:12:43;;;;;;;9.85;4.10;;;;;;;-0.64;86.20;99360.91;2157771;80;21234;-69
2021/01/13 07:15:45;;;;;;;12.75;4.62;;;;;;;-0.62;86.23;99361.64;2124776;80;21513;-70
2021/01/13 07:18:46;;;;;;;7.65;4.45;;;;;;;-0.60;86.21;99366.24;2147948;82;21161;-73
2021/01/13 07:21:48;;;;;;;15.72;5.65;;;;;;;-0.57;86.27;99360.80;2152171;80;21114;-69
2021/01/13 07:24:51;;;;;;;8.13;4.58;;;;;;;-0.55;86.17;99368.04;2144784;80;21556;-73
2021/01/13 07:27:53;;;;;;;10.45;4.60;;;;;;;-0.53;86.13;99372.67;2153554;80;21123;-72
2021/01/13 07:30:54;;;;;;;13.05;4.90;;;;;;;-0.49;86.03;99373.27;2151530;80;21663;-73
2021/01/13 07:34:01;;;;;;;12.20;4.92;;;;;;;-0.48;85.95;99379.69;2152255;80;21156;-69
2021/01/13 07:37:23;;;;;;;14.25;4.62;;;;;;;-0.42;85.83;99377.09;2150804;80;21139;-69
2021/01/13 07:40:32;;;;;;;14.40;4.70;;;;;;;-0.34;85.79;99384.31;2149321;80;21099;-69
2021/01/13 07:44:09;;;;;;;14.00;4.78;;;;;;;-0.29;85.66;99390.84;2148529;80;21169;-70
2021/01/13 07:47:29;;;;;;;16.07;4.58;;;;;;;-0.25;85.56;99390.98;2154209;80;21652;-69
2021/01/13 07:50:33;;;;;;;11.93;4.40;;;;;;;-0.25;85.49;99388.38;2148752;80;21149;-70
2021/01/13 07:53:39;;;;;;;7.72;4.30;;;;;;;-0.23;85.55;99390.86;2147791;80;21182;-69
2021/01/13 07:56:44;;;;;;;13.72;5.87;;;;;;;-0.25;85.65;99395.38;2149857;80;21122;-70
2021/01/13 08:00:04;;;;;;;14.50;6.90;;;;;;;-0.25;85.83;99383.64;2124920;81;21169;-71
2021/01/13 08:03:27;;;;;;;14.90;5.97;;;;;;;-0.30;85.92;99389.19;2150857;80;21099;-70
2021/01/13 08:06:34;;;;;;;9.85;4.42;;;;;;;-0.29;86.02;99390.02;2153397;80;21200;-70
2021/01/13 08:09:41;;;;;;;9.73;4.50;;;;;;;-0.30;86.01;99394.41;2148649;80;21137;-72
2021/01/13 08:13:12;;;;;;;11.08;4.70;;;;;;;-0.27;86.07;99385.53;2152018;80;21208;-72
2021/01/13 08:16:45;;;;;;;10.38;4.35;;;;;;;-0.27;86.16;99389.44;2139947;80;21602;-74
2021/01/13 08:20:37;;;;;;;13.32;4.62;;;;;;;-0.21;86.32;99386.84;2150129;80;21153;-71
2021/01/13 08:23:51;;;;;;;12.78;5.67;;;;;;;-0.20;86.23;99389.31;2149720;80;21508;-72
2021/01/13 08:26:53;;;;;;;14.45;5.87;;;;;;;-0.16;86.28;99389.46;2155557;80;21181;-73
2021/01/13 08:29:57;;;;;;;14.78;5.67;;;;;;;-0.13;86.23;99387.09;2126343;80;21592;-73
2021/01/13 08:33:00;;;;;;;11.70;6.67;;;;;;;-0.17;86.22;99389.56;2146156;80;21070;-71
2021/01/13 08:36:08;;;;;;;16.20;6.65;;;;;;;-0.18;86.19;99391.34;2152163;80;21438;-71
2021/01/13 08:39:15;;;;;;;15.00;6.70;;;;;;;-0.16;86.26;99394.67;2148437;80;21497;-73
2021/01/13 08:42:29;;;;;;;19.02;7.08;;;;;;;-0.13;86.31;99399.66;2154618;80;21212;-71
2021/01/13 08:45:37;;;;;;;16.95;6.95;;;;;;;-0.12;86.26;99396.56;2149605;80;21181;-71
2021/01/13 08:48:39;;;;;;;12.63;5.83;;;;;;;-0.09;86.33;99401.55;2141829;80;21150;-73
2021/01/13 08:51:45;;;;;;;12.28;6.12;;;;;;;-0.09;86.25;99401.06;2122932;80;22566;-71
2021/01/13 08:55:13;;;;;;;14.95;6.78;;;;;;;-0.05;86.29;99396.00;2138847;80;21105;-71
2021/01/13 08:58:19;;;;;;;16.97;6.42;;;;;;;0.01;86.19;99404.30;2149158;80;21174;-72
2021/01/13 09:01:26;;;;;;;10.82;6.00;;;;;;;0.06;86.16;99405.61;2149898;80;21692;-72
2021/01/13 09:04:52;;;;;;;17.17;7.42;;;;;;;0.09;86.05;99411.08;2110884;80;21091;-72
2021/01/13 09:07:56;;;;;;;14.18;5.83;;;;;;;0.13;86.01;99420.31;2147482;81;21113;-72
2021/01/13 09:10:58;;;;;;;9.35;5.87;;;;;;;0.17;85.96;99410.84;2151473;80;21109;-73
2021/01/13 09:14:24;;;;;;;10.45;5.25;;;;;;;0.30;85.87;99413.80;2120613;80;21123;-72
2021/01/13 09:17:28;;;;;;;9.35;4.60;;;;;;;0.41;85.71;99428.98;2149081;82;21157;-71
2021/01/13 09:20:32;;;;;;;9.20;5.90;;;;;;;0.38;85.47;99431.00;2151290;80;21608;-71
2021/01/13 09:23:36;;;;;;;11.25;5.83;;;;;;;0.23;85.53;99431.72;2144865;80;21145;-71
2021/01/13 09:26:39;;;;;;;9.30;5.10;;;;;;;0.07;85.60;99436.44;2153269;80;21101;-72
2021/01/13 09:29:51;;;;;;;8.95;4.80;;;;;;;-0.03;85.90;99438.45;2146676;80;21149;-71
2021/01/13 09:32:55;;;;;;;7.53;3.90;;;;;;;-0.14;86.07;99438.42;2149043;80;21649;-73
2021/01/13 09:36:01;;;;;;;9.10;5.10;;;;;;;-0.18;86.18;99436.98;2150951;80;21156;-72
2021/01/13 09:39:15;;;;;;;13.20;7.75;;;;;;;-0.18;86.29;99437.45;2150016;80;21738;-72
2021/01/13 09:42:21;;;;;;;10.55;5.87;;;;;;;-0.08;86.45;99438.44;2147486;80;21196;-72
2021/01/13 09:45:25;;;;;;;10.65;6.60;;;;;;;0.08;86.43;99432.88;2146662;80;21141;-74
2021/01/13 09:48:30;;;;;;;12.53;5.62;;;;;;;0.17;86.28;99431.72;2141332;80;21229;-71
2021/01/13 09:51:33;;;;;;;12.37;5.20;;;;;;;0.17;86.07;99424.34;2151672;80;21120;-73
2021/01/13 09:54:37;;;;;;;7.80;4.95;;;;;;;0.13;85.93;99429.45;2144684;80;22144;-73
2021/01/13 09:57:39;;;;;;;9.10;5.12;;;;;;;0.11;85.90;99430.02;2147880;80;21143;-72
2021/01/13 10:00:43;;;;;;;9.68;4.65;;;;;;;0.13;85.90;99419.02;2153826;80;21152;-72
2021/01/13 10:03:48;;;;;;;11.22;5.40;;;;;;;0.14;85.91;99418.91;2150603;80;21576;-72
2021/01/13 10:06:56;;;;;;;14.38;5.40;;;;;;;0.20;85.81;99415.00;2146922;80;21169;-74
2021/01/13 10:09:59;;;;;;;14.90;6.33;;;;;;;0.25;85.78;99412.02;2151252;80;22709;-71
2021/01/13 10:13:02;;;;;;;9.60;4.87;;;;;;;0.30;85.75;99426.37;2145647;80;21179;-72
2021/01/13 10:16:05;;;;;;;11.78;6.00;;;;;;;0.34;85.68;99421.73;2121616;80;21370;-72
2021/01/13 10:19:07;;;;;;;11.93;5.12;;;;;;;0.42;85.58;99422.83;2127434;80;21502;-72
2021/01/13 10:22:09;;;;;;;13.75;5.75;;;;;;;0.44;85.39;99415.69;2125094;81;22370;-72
2021/01/13 10:25:24;;;;;;;11.43;5.58;;;;;;;0.39;85.37;99424.34;2154521;80;21178;-72
2021/01/13 10:28:28;;;;;;;12.63;5.78;;;;;;;0.32;85.30;99419.27;2134469;80;21056;-72
2021/01/13 10:31:30;;;;;;;14.55;6.78;;;;;;;0.31;85.47;99422.83;2155155;80;21109;-72
2021/01/13 10:34:31;;;;;;;10.95;5.78;;;;;;;0.39;85.65;99413.91;2151700;80;21101;-71
2021/01/13 10:37:50;;;;;;;11.08;5.12;;;;;;;0.48;85.55;99416.75;2150173;80;21181;-72
2021/01/13 10:40:53;;;;;;;16.42;6.60;;;;;;;0.52;85.38;99424.72;2154663;80;21131;-72
2021/01/13 10:44:17;;;;;;;14.90;5.50;;;;;;;0.54;85.17;99413.69;2151214;80;21556;-72
2021/01/13 10:47:19;;;;;;;12.80;5.75;;;;;;;0.60;85.17;99415.81;2149953;80;22380;-72
2021/01/13 10:50:26;;;;;;;14.63;6.72;;;;;;;0.67;85.01;99405.23;2156712;80;21129;-72
2021/01/13 10:53:33;;;;;;;12.20;5.47;;;;;;;0.69;84.88;99402.51;2150468;80;21642;-73
2021/01/13 10:56:38;;;;;;;12.33;5.10;;;;;;;0.69;84.72;99403.81;2155588;80;21194;-72
2021/01/13 10:59:41;;;;;;;15.15;5.60;;;;;;;0.66;84.53;99399.66;2153579;80;21086;-71
2021/01/13 11:03:02;;;;;;;18.32;5.25;;;;;;;0.55;84.52;99407.50;2147113;80;21195;-69
2021/01/13 11:06:04;;;;;;;10.10;4.55;;;;;;;0.44;84.75;99400.03;2154119;80;21218;-71
2021/01/13 11:09:05;;;;;;;12.90;4.28;;;;;;;0.37;84.88;99401.47;2144148;80;21162;-72
2021/01/13 11:12:09;;;;;;;12.75;5.53;;;;;;;0.34;85.01;99396.49;2148840;81;22393;-71
2021/01/13 11:15:12;;;;;;;10.05;4.75;;;;;;;0.37;85.22;99398.86;2142621;81;21122;-72
2021/01/13 11:18:13;;;;;;;12.05;5.05;;;;;;;0.39;85.25;99387.80;2136756;81;21119;-77
2021/01/13 11:21:16;;;;;;;17.45;4.67;;;;;;;0.44;85.24;99384.37;2140550;82;21213;-76
2021/01/13 11:24:28;;;;;;;10.50;4.53;;;;;;;0.48;85.13;99377.15;2124318;81;21123;-74
2021/01/13 11:27:32;;;;;;;11.68;5.65;;;;;;;0.53;85.05;99381.98;2134055;81;21079;-74
2021/01/13 11:30:40;;;;;;;14.38;5.17;;;;;;;0.57;84.87;99380.81;2143444;81;21180;-75
2021/01/13 11:33:45;;;;;;;10.35;4.67;;;;;;;0.64;84.89;99376.75;2142483;81;21130;-74
2021/01/13 11:36:52;;;;;;;10.43;4.10;;;;;;;0.70;84.78;99378.87;2140387;81;21530;-74
2021/01/13 11:40:26;;;;;;;12.98;4.28;;;;;;;0.77;84.41;99380.05;2143211;81;21169;-74
2021/01/13 11:44:02;;;;;;;21.40;4.75;;;;;;;0.82;84.42;99371.86;2146431;81;21154;-75
2021/01/13 11:47:18;;;;;;;11.95;4.05;;;;;;;0.89;84.11;99369.92;2140879;81;21181;-75
2021/01/13 11:50:23;;;;;;;20.70;5.50;;;;;;;0.88;83.80;99372.19;2143099;81;21232;-75
2021/01/13 11:53:28;;;;;;;9.45;4.03;;;;;;;0.91;83.85;99363.77;2140277;81;21510;-74
2021/01/13 11:56:30;;;;;;;21.15;4.50;;;;;;;0.96;83.72;99358.97;2122623;82;21179;-74
2021/01/13 11:59:32;;;;;;;10.10;3.70;;;;;;;1.01;83.41;99354.21;2141869;81;21113;-73
2021/01/13 12:02:33;;;;;;;11.22;3.67;;;;;;;1.09;82.92;99350.50;2135577;81;21185;-75
2021/01/13 12:05:37;;;;;;;17.32;3.80;;;;;;;1.10;82.67;99352.18;2136600;81;21150;-73
2021/01/13 12:08:38;;;;;;;14.03;3.70;;;;;;;1.10;82.27;99339.11;2139791;81;21142;-74
2021/01/13 12:11:40;;;;;;;11.95;3.27;;;;;;;1.10;81.95;99339.94;2141219;81;21110;-74
2021/01/13 12:14:43;;;;;;;10.10;3.50;;;;;;;1.17;82.16;99345.96;2144172;81;21139;-74
2021/01/13 12:17:50;;;;;;;17.00;5.72;;;;;;;1.26;82.04;99346.51;2144669;81;21157;-78
2021/01/13 12:20:54;;;;;;;19.80;8.13;;;;;;;1.30;81.92;99340.91;2141440;81;21153;-74
2021/01/13 12:23:58;;;;;;;18.32;6.20;;;;;;;1.39;81.96;99341.11;2141293;81;21627;-74
2021/01/13 12:27:16;;;;;;;18.50;5.55;;;;;;;1.48;81.76;99342.95;2139136;81;22514;-73
2021/01/13 12:30:18;;;;;;;18.92;4.40;;;;;;;1.52;81.59;99336.50;2142494;81;21156;-75
2021/01/13 12:33:20;;;;;;;12.88;4.40;;;;;;;1.51;81.27;99341.39;2140799;81;21193;-74
2021/01/13 12:36:30;;;;;;;15.23;4.78;;;;;;;1.51;80.59;99336.16;2141559;81;21174;-74
2021/01/13 12:39:35;;;;;;;18.45;5.03;;;;;;;1.49;80.83;99338.06;2138754;81;21098;-77
2021/01/13 12:42:37;;;;;;;10.45;4.65;;;;;;;1.49;80.54;99339.38;2137817;81;21166;-75
2021/01/13 12:45:38;;;;;;;9.23;3.77;;;;;;;1.45;80.64;99341.42;2142717;81;21642;-74
2021/01/13 12:48:40;;;;;;;17.70;4.20;;;;;;;1.39;80.42;99342.42;2136336;81;21193;-77
2021/01/13 12:51:41;;;;;;;20.68;4.65;;;;;;;1.29;80.69;99331.39;2142799;81;21141;-74
2021/01/13 12:54:42;;;;;;;15.05;4.65;;;;;;;1.24;80.71;99333.58;2144660;81;21145;-77
2021/01/13 12:57:43;;;;;;;12.45;3.77;;;;;;;1.19;80.79;99340.14;2143589;81;21162;-86
2021/01/13 13:00:45;;;;;;;12.73;4.60;;;;;;;1.16;80.65;99324.23;2139738;81;21213;-72
2021/01/13 13:03:48;;;;;;;13.90;4.35;;;;;;;1.17;80.87;99328.98;2139766;81;21614;-72
2021/01/13 13:06:49;;;;;;;15.78;4.45;;;;;;;1.21;81.14;99333.84;2141033;81;21151;-72
2021/01/13 13:09:50;;;;;;;16.27;5.10;;;;;;;1.28;81.05;99336.28;2147166;81;21196;-72
2021/01/13 13:12:52;;;;;;;13.98;5.20;;;;;;;1.30;80.98;99337.48;2124284;80;21243;-72
2021/01/13 13:15:54;;;;;;;25.30;8.33;;;;;;;1.36;80.85;99336.97;2154944;80;21196;-73
2021/01/13 13:18:56;;;;;;;13.62;4.90;;;;;;;1.38;80.66;99340.74;2152077;80;21117;-73
2021/01/13 13:21:58;;;;;;;21.20;6.00;;;;;;;1.34;80.62;99344.09;2153449;80;21685;-72
2021/01/13 13:24:59;;;;;;;17.85;6.60;;;;;;;1.29;80.46;99345.77;2151661;80;21408;-72
2021/01/13 13:28:00;;;;;;;8.60;3.92;;;;;;;1.30;80.49;99340.91;2151702;80;21498;-72
2021/01/13 13:31:05;;;;;;;13.00;4.97;;;;;;;1.30;80.59;99347.45;2147942;80;21153;-72
2021/01/13 13:34:07;;;;;;;15.88;4.80;;;;;;;1.30;80.17;99340.09;2153804;80;21541;-72
2021/01/13 13:37:08;;;;;;;8.93;3.27;;;;;;;1.28;79.63;99331.54;2151575;80;21055;-77
2021/01/13 13:40:10;;;;;;;13.72;3.70;;;;;;;1.28;80.03;99334.15;2150145;80;21549;-73
2021/01/13 13:43:12;;;;;;;10.95;3.27;;;;;;;1.23;79.88;99328.47;2157192;80;21105;-73
2021/01/13 13:46:13;;;;;;;11.35;3.33;;;;;;;1.15;80.06;99323.86;2151358;80;21136;-73
2021/01/13 13:49:15;;;;;;;11.05;3.90;;;;;;;1.14;80.09;99329.23;2151130;80;21187;-77
2021/01/13 13:52:16;;;;;;;11.68;3.87;;;;;;;1.14;80.15;99324.83;2149660;80;21178;-73
2021/01/13 13:55:18;;;;;;;13.13;4.28;;;;;;;1.15;80.33;99323.04;2124760;80;21600;-72
2021/01/13 13:58:19;;;;;;;17.92;7.22;;;;;;;1.17;80.46;99324.58;2151763;80;21170;-72
2021/01/13 14:01:21;;;;;;;79.97;30.60;;;;;;;1.18;80.33;99317.56;2149707;80;21177;-73
2021/01/13 14:04:22;;;;;;;108.85;39.15;;;;;;;1.17;80.26;99315.91;2155216;81;21604;-72
2021/01/13 14:07:24;;;;;;;63.05;17.20;;;;;;;1.15;80.42;99318.64;2154431;80;21549;-73
2021/01/13 14:10:26;;;;;;;46.15;14.35;;;;;;;1.15;80.42;99322.55;2151885;80;21216;-72
2021/01/13 14:13:27;;;;;;;29.12;8.03;;;;;;;1.15;79.92;99321.73;2148478;81;21146;-73
2021/01/13 14:16:28;;;;;;;37.08;10.68;;;;;;;1.12;79.82;99322.81;2138926;81;22401;-77
2021/01/13 14:19:30;;;;;;;33.10;9.60;;;;;;;1.09;79.87;99319.14;2143312;81;21146;-72
2021/01/13 14:22:32;;;;;;;24.10;7.33;;;;;;;1.07;79.97;99327.12;2144555;81;21196;-73
2021/01/13 14:25:34;;;;;;;28.95;8.75;;;;;;;1.02;79.65;99312.78;2144028;81;21180;-72
2021/01/13 14:28:35;;;;;;;15.95;5.75;;;;;;;1.00;79.94;99315.98;2142936;81;21178;-73
2021/01/13 14:31:38;;;;;;;19.23;7.08;;;;;;;0.96;79.91;99319.78;2137715;81;21097;-71
2021/01/13 14:34:39;;;;;;;16.23;5.12;;;;;;;0.94;80.10;99320.41;2145066;81;21156;-72
2021/01/13 14:37:41;;;;;;;27.70;9.73;;;;;;;0.91;80.13;99323.28;2136510;81;21583;-78